createdAt,value
2018-01-21T00:00:09.682Z,97.80
2018-01-21T00:01:09.673Z,107.70
2018-01-21T00:02:09.661Z,101.80
2018-01-21T00:03:09.649Z,108.00
2018-01-21T00:04:09.642Z,103.80
2018-01-21T00:05:09.638Z,113.60
2018-01-21T00:06:09.622Z,105.60
2018-01-21T00:07:09.613Z,102.30
2018-01-21T00:08:09.605Z,98.40
2018-01-21T00:09:09.594Z,109.40
2018-01-21T00:10:09.584Z,103.60
2018-01-21T00:11:09.574Z,94.80
2018-01-21T00:12:09.564Z,89.60
2018-01-21T00:13:09.560Z,86.70
2018-01-21T00:14:09.546Z,81.80
2018-01-21T00:15:09.535Z,84.70
2018-01-21T00:16:09.526Z,82.90
2018-01-21T00:17:09.517Z,85.70
2018-01-21T00:18:09.506Z,83.20
2018-01-21T00:19:09.498Z,85.20
2018-01-21T00:20:09.485Z,75.50
2018-01-21T00:21:09.478Z,79.90
2018-01-21T00:22:09.466Z,76.10
2018-01-21T00:23:09.460Z,84.30
2018-01-21T00:24:09.448Z,82.60
2018-01-21T00:25:09.437Z,75.20
2018-01-21T00:26:09.428Z,70.50
2018-01-21T00:27:09.418Z,82.40
2018-01-21T00:28:09.407Z,71.30
2018-01-21T00:29:09.398Z,66.80
2018-01-21T00:30:09.389Z,68.40
2018-01-21T00:31:09.378Z,71.20
2018-01-21T00:32:09.370Z,63.60
2018-01-21T00:33:09.361Z,61.20
2018-01-21T00:34:09.346Z,75.60
2018-01-21T00:35:09.340Z,61.60
2018-01-21T00:36:09.330Z,59.80
2018-01-21T00:37:09.321Z,58.20
2018-01-21T00:38:09.316Z,60.60
2018-01-21T00:39:09.301Z,71.60
2018-01-21T00:40:09.293Z,80.40
2018-01-21T00:41:09.282Z,78.20
2018-01-21T00:42:09.273Z,88.50
2018-01-21T00:43:09.263Z,85.40
2018-01-21T00:44:09.256Z,94.60
2018-01-21T00:45:09.243Z,100.90
2018-01-21T00:46:09.235Z,102.30
2018-01-21T00:47:09.227Z,97.60
2018-01-21T00:48:09.218Z,106.80
2018-01-21T00:49:09.205Z,100.70
2018-01-21T00:50:09.195Z,72.30
2018-01-21T00:51:09.189Z,64.50
2018-01-21T00:52:09.176Z,72.40
2018-01-21T00:53:09.164Z,81.50
2018-01-21T00:54:09.156Z,76.00
2018-01-21T00:55:09.149Z,58.50
2018-01-21T00:56:09.138Z,64.90
2018-01-21T00:57:09.128Z,72.30
2018-01-21T00:58:09.118Z,76.40
2018-01-21T00:59:09.109Z,74.30
2018-01-21T01:00:09.100Z,72.80
2018-01-21T01:01:09.088Z,76.20
2018-01-21T01:02:09.078Z,85.00
2018-01-21T01:03:09.069Z,81.70
2018-01-21T01:04:09.059Z,90.10
2018-01-21T01:05:09.050Z,77.40
2018-01-21T01:06:09.040Z,79.90
2018-01-21T01:07:09.033Z,77.80
2018-01-21T01:08:09.021Z,74.70
2018-01-21T01:09:09.017Z,67.70
2018-01-21T01:10:09.001Z,70.10
2018-01-21T01:11:08.991Z,70.40
2018-01-21T01:12:08.982Z,69.80
2018-01-21T01:13:08.974Z,69.20
2018-01-21T01:14:08.960Z,64.10
2018-01-21T01:15:08.955Z,64.40
2018-01-21T01:16:08.942Z,61.60
2018-01-21T01:17:08.932Z,61.10
2018-01-21T01:18:08.921Z,58.80
2018-01-21T01:19:08.910Z,66.60
2018-01-21T01:20:08.902Z,62.90
2018-01-21T01:21:08.893Z,64.40
2018-01-21T01:22:08.882Z,61.40
2018-01-21T01:23:08.876Z,59.00
2018-01-21T01:24:08.860Z,64.50
2018-01-21T01:25:08.855Z,71.40
2018-01-21T01:26:08.844Z,65.00
2018-01-21T01:27:08.835Z,68.00
2018-01-21T01:28:08.824Z,64.60
2018-01-21T01:29:08.813Z,69.70
2018-01-21T01:30:08.799Z,72.30
2018-01-21T01:31:08.794Z,74.40
2018-01-21T01:32:08.784Z,67.30
2018-01-21T01:33:08.775Z,70.80
2018-01-21T01:34:08.769Z,66.10
2018-01-21T01:35:08.755Z,67.50
2018-01-21T01:36:08.746Z,64.40
2018-01-21T01:37:08.738Z,60.80
2018-01-21T01:38:08.724Z,58.90
2018-01-21T01:39:08.719Z,57.60
2018-01-21T01:40:08.710Z,61.50
2018-01-21T01:41:08.697Z,59.90
2018-01-21T01:42:08.686Z,58.40
2018-01-21T01:43:08.676Z,56.80
2018-01-21T01:44:08.670Z,59.60
2018-01-21T01:45:08.656Z,61.10
2018-01-21T01:46:08.642Z,59.20
2018-01-21T01:47:08.638Z,59.00
2018-01-21T01:48:08.630Z,59.10
2018-01-21T01:49:08.616Z,55.50
2018-01-21T01:50:08.609Z,56.70
2018-01-21T01:51:08.603Z,59.40
2018-01-21T01:52:08.589Z,52.00
2018-01-21T01:53:08.578Z,53.70
2018-01-21T01:54:08.569Z,55.50
2018-01-21T01:55:08.562Z,56.40
2018-01-21T01:56:08.549Z,50.50
2018-01-21T01:57:08.539Z,53.00
2018-01-21T01:58:08.530Z,55.60
2018-01-21T01:59:08.521Z,53.30
2018-01-21T02:00:08.510Z,59.00
2018-01-21T02:01:08.498Z,55.60
2018-01-21T02:02:08.490Z,48.60
2018-01-21T02:03:08.489Z,55.10
2018-01-21T02:04:08.470Z,54.20
2018-01-21T02:05:08.481Z,58.90
2018-01-21T02:06:08.451Z,59.10
2018-01-21T02:07:08.441Z,56.00
2018-01-21T02:08:08.432Z,52.70
2018-01-21T02:09:08.421Z,51.60
2018-01-21T02:10:08.412Z,52.70
2018-01-21T02:11:08.406Z,51.90
2018-01-21T02:12:08.393Z,52.80
2018-01-21T02:13:08.382Z,58.00
2018-01-21T02:14:08.373Z,60.70
2018-01-21T02:15:08.370Z,59.20
2018-01-21T02:16:08.364Z,56.20
2018-01-21T02:17:08.342Z,53.70
2018-01-21T02:18:08.334Z,51.40
2018-01-21T02:19:08.326Z,50.20
2018-01-21T02:20:08.313Z,51.10
2018-01-21T02:21:08.305Z,46.50
2018-01-21T02:22:08.295Z,53.20
2018-01-21T02:23:08.286Z,56.10
2018-01-21T02:24:08.275Z,57.10
2018-01-21T02:25:08.267Z,58.20
2018-01-21T02:26:08.252Z,53.60
2018-01-21T02:27:08.249Z,54.20
2018-01-21T02:28:08.239Z,49.60
2018-01-21T02:29:08.227Z,53.10
2018-01-21T02:30:08.226Z,52.30
2018-01-21T02:31:08.209Z,52.10
2018-01-21T02:32:08.252Z,53.50
2018-01-21T02:33:08.189Z,54.60
2018-01-21T02:34:08.179Z,52.10
2018-01-21T02:35:08.171Z,51.70
2018-01-21T02:36:08.175Z,50.30
2018-01-21T02:37:08.152Z,51.20
2018-01-21T02:38:08.142Z,53.30
2018-01-21T02:39:08.131Z,54.50
2018-01-21T02:40:08.125Z,55.60
2018-01-21T02:41:08.115Z,54.50
2018-01-21T02:42:08.105Z,56.70
2018-01-21T02:43:08.093Z,56.10
2018-01-21T02:44:08.088Z,59.10
2018-01-21T02:45:08.075Z,62.10
2018-01-21T02:46:08.065Z,57.80
2018-01-21T02:47:08.056Z,57.90
2018-01-21T02:48:08.048Z,55.00
2018-01-21T02:49:08.036Z,54.20
2018-01-21T02:50:08.027Z,53.30
2018-01-21T02:51:08.016Z,52.20
2018-01-21T02:52:08.007Z,53.00
2018-01-21T02:53:07.995Z,49.50
2018-01-21T02:54:07.986Z,52.30
2018-01-21T02:55:07.980Z,53.00
2018-01-21T02:56:07.975Z,53.10
2018-01-21T02:57:07.959Z,53.80
2018-01-21T02:58:07.950Z,51.80
2018-01-21T02:59:07.938Z,53.80
2018-01-21T03:00:07.929Z,54.40
2018-01-21T03:01:07.921Z,56.20
2018-01-21T03:02:07.909Z,55.00
2018-01-21T03:03:07.902Z,55.10
2018-01-21T03:04:07.892Z,51.40
2018-01-21T03:05:07.899Z,52.90
2018-01-21T03:06:07.869Z,55.60
2018-01-21T03:07:07.858Z,57.60
2018-01-21T03:08:07.850Z,54.40
2018-01-21T03:09:07.841Z,56.80
2018-01-21T03:10:07.827Z,55.50
2018-01-21T03:11:07.820Z,60.10
2018-01-21T03:12:07.814Z,56.80
2018-01-21T03:13:07.798Z,55.80
2018-01-21T03:14:07.790Z,57.60
2018-01-21T03:15:07.782Z,56.10
2018-01-21T03:16:07.765Z,56.50
2018-01-21T03:17:07.760Z,54.90
2018-01-21T03:18:07.750Z,62.00
2018-01-21T03:19:07.740Z,56.20
2018-01-21T03:20:07.730Z,59.10
2018-01-21T03:21:07.721Z,55.10
2018-01-21T03:22:07.707Z,51.50
2018-01-21T03:23:07.700Z,56.70
2018-01-21T03:24:07.690Z,59.90
2018-01-21T03:25:07.681Z,57.00
2018-01-21T03:26:07.680Z,59.20
2018-01-21T03:27:07.660Z,59.70
2018-01-21T03:28:07.657Z,58.80
2018-01-21T03:29:07.641Z,60.60
2018-01-21T03:30:07.633Z,63.30
2018-01-21T03:31:07.624Z,62.00
2018-01-21T03:32:07.612Z,60.90
2018-01-21T03:33:07.602Z,65.70
2018-01-21T03:34:07.590Z,65.30
2018-01-21T03:35:07.581Z,62.00
2018-01-21T03:36:07.571Z,67.50
2018-01-21T03:37:07.562Z,67.10
2018-01-21T03:38:07.555Z,66.50
2018-01-21T03:39:07.542Z,69.10
2018-01-21T03:40:07.533Z,70.50
2018-01-21T03:41:07.519Z,69.10
2018-01-21T03:42:07.513Z,67.70
2018-01-21T03:43:07.506Z,70.80
2018-01-21T03:44:07.493Z,70.60
2018-01-21T03:45:07.481Z,69.80
2018-01-21T03:46:07.475Z,72.70
2018-01-21T03:47:07.459Z,72.30
2018-01-21T03:48:07.452Z,75.10
2018-01-21T03:49:07.442Z,75.10
2018-01-21T03:50:07.433Z,70.80
2018-01-21T03:51:07.418Z,70.80
2018-01-21T03:52:07.411Z,69.90
2018-01-21T03:53:07.401Z,73.50
2018-01-21T03:54:07.391Z,77.40
2018-01-21T03:55:07.383Z,75.60
2018-01-21T03:56:07.370Z,73.20
2018-01-21T03:57:07.362Z,77.00
2018-01-21T03:58:07.350Z,74.00
2018-01-21T03:59:07.338Z,75.10
2018-01-21T04:00:07.330Z,78.00
2018-01-21T04:01:07.321Z,74.70
2018-01-21T04:02:07.310Z,77.20
2018-01-21T04:03:07.300Z,79.70
2018-01-21T04:04:07.300Z,74.80
2018-01-21T04:05:07.279Z,81.70
2018-01-21T04:06:07.270Z,76.60
2018-01-21T04:07:07.261Z,81.50
2018-01-21T04:08:07.251Z,80.70
2018-01-21T04:09:07.248Z,79.50
2018-01-21T04:10:07.229Z,83.30
2018-01-21T04:11:07.217Z,81.60
2018-01-21T04:12:07.211Z,81.30
2018-01-21T04:13:07.198Z,80.30
2018-01-21T04:14:07.231Z,83.50
2018-01-21T04:15:07.187Z,77.90
2018-01-21T04:16:07.171Z,73.00
2018-01-21T04:17:07.161Z,70.50
2018-01-21T04:18:07.148Z,70.40
2018-01-21T04:19:07.140Z,76.60
2018-01-21T04:20:07.130Z,76.20
2018-01-21T04:21:07.127Z,74.80
2018-01-21T04:22:07.110Z,73.30
2018-01-21T04:23:07.102Z,74.10
2018-01-21T04:24:07.092Z,62.00
2018-01-21T04:25:07.082Z,75.00
2018-01-21T04:26:07.069Z,81.00
2018-01-21T04:27:07.065Z,65.70
2018-01-21T04:28:07.054Z,63.90
2018-01-21T04:29:07.040Z,61.90
2018-01-21T04:30:07.028Z,71.10
2018-01-21T04:31:07.022Z,66.60
2018-01-21T04:32:07.013Z,72.50
2018-01-21T04:33:07.001Z,74.20
2018-01-21T04:34:06.990Z,75.20
2018-01-21T04:35:06.984Z,70.40
2018-01-21T04:36:06.970Z,70.00
2018-01-21T04:37:06.963Z,74.90
2018-01-21T04:38:06.951Z,79.10
2018-01-21T04:39:06.947Z,71.60
2018-01-21T04:40:06.933Z,74.70
2018-01-21T04:41:06.923Z,80.00
2018-01-21T04:42:06.908Z,79.10
2018-01-21T04:43:06.905Z,79.40
2018-01-21T04:44:06.894Z,83.80
2018-01-21T04:45:06.881Z,81.20
2018-01-21T04:46:06.886Z,83.60
2018-01-21T04:47:06.875Z,80.90
2018-01-21T04:48:06.850Z,83.80
2018-01-21T04:49:06.844Z,79.50
2018-01-21T04:50:06.837Z,84.10
2018-01-21T04:51:06.824Z,90.40
2018-01-21T04:52:06.819Z,92.30
2018-01-21T04:53:06.805Z,92.60
2018-01-21T04:54:06.791Z,96.60
2018-01-21T04:55:06.784Z,95.70
2018-01-21T04:56:06.828Z,95.90
2018-01-21T04:57:06.765Z,101.10
2018-01-21T04:58:06.758Z,85.50
2018-01-21T04:59:06.744Z,96.80
2018-01-21T05:00:06.737Z,91.70
2018-01-21T05:01:06.725Z,93.00
2018-01-21T05:02:06.714Z,93.00
2018-01-21T05:03:06.714Z,89.10
2018-01-21T05:04:06.697Z,93.60
2018-01-21T05:05:06.685Z,90.70
2018-01-21T05:06:06.678Z,95.70
2018-01-21T05:07:06.665Z,94.10
2018-01-21T05:08:06.655Z,103.50
2018-01-21T05:09:06.645Z,96.80
2018-01-21T05:10:06.635Z,98.30
2018-01-21T05:11:06.625Z,94.70
2018-01-21T05:12:06.615Z,97.80
2018-01-21T05:13:06.605Z,95.50
2018-01-21T05:14:06.593Z,90.50
2018-01-21T05:15:06.584Z,87.60
2018-01-21T05:16:06.577Z,94.10
2018-01-21T05:17:06.571Z,96.30
2018-01-21T05:18:06.556Z,97.90
2018-01-21T05:19:06.542Z,97.90
2018-01-21T05:20:06.535Z,95.10
2018-01-21T05:21:06.527Z,102.30
2018-01-21T05:22:06.513Z,100.90
2018-01-21T05:23:06.505Z,95.80
2018-01-21T05:24:06.495Z,97.60
2018-01-21T05:25:06.484Z,97.70
2018-01-21T05:26:06.473Z,93.90
2018-01-21T05:27:06.464Z,87.40
2018-01-21T05:28:06.456Z,86.20
2018-01-21T05:29:06.445Z,84.10
2018-01-21T05:30:06.434Z,76.80
2018-01-21T05:31:06.423Z,85.60
2018-01-21T05:32:06.416Z,78.70
2018-01-21T05:33:06.404Z,87.60
2018-01-21T05:34:06.393Z,88.70
2018-01-21T05:35:06.383Z,84.20
2018-01-21T05:36:06.384Z,76.80
2018-01-21T05:37:06.367Z,91.20
2018-01-21T05:38:06.356Z,84.70
2018-01-21T05:39:06.344Z,85.70
2018-01-21T05:40:06.335Z,92.10
2018-01-21T05:41:06.337Z,92.30
2018-01-21T05:42:06.313Z,94.40
2018-01-21T05:43:06.309Z,89.80
2018-01-21T05:44:06.294Z,92.00
2018-01-21T05:45:06.284Z,83.60
2018-01-21T05:46:06.280Z,91.10
2018-01-21T05:47:06.267Z,82.10
2018-01-21T05:48:06.254Z,91.70
2018-01-21T05:49:06.245Z,88.30
2018-01-21T05:50:06.233Z,80.20
2018-01-21T05:51:06.224Z,88.50
2018-01-21T05:52:06.215Z,86.40
2018-01-21T05:53:06.206Z,87.60
2018-01-21T05:54:06.194Z,87.70
2018-01-21T05:55:06.186Z,81.70
2018-01-21T05:56:06.174Z,80.30
2018-01-21T05:57:06.165Z,83.70
2018-01-21T05:58:06.157Z,82.80
2018-01-21T05:59:06.145Z,90.30
2018-01-21T06:00:06.136Z,81.80
2018-01-21T06:01:06.127Z,77.40
2018-01-21T06:02:06.113Z,73.80
2018-01-21T06:03:06.109Z,77.60
2018-01-21T06:04:06.093Z,73.00
2018-01-21T06:05:06.086Z,77.30
2018-01-21T06:06:06.077Z,76.00
2018-01-21T06:07:06.066Z,72.50
2018-01-21T06:08:06.054Z,72.60
2018-01-21T06:09:06.048Z,71.20
2018-01-21T06:10:06.036Z,69.30
2018-01-21T06:11:06.026Z,71.20
2018-01-21T06:12:06.020Z,72.60
2018-01-21T06:13:06.007Z,69.60
2018-01-21T06:14:06.002Z,71.20
2018-01-21T06:15:05.986Z,66.80
2018-01-21T06:16:05.976Z,73.20
2018-01-21T06:17:05.966Z,71.40
2018-01-21T06:18:05.955Z,75.30
2018-01-21T06:19:05.946Z,76.20
2018-01-21T06:20:05.942Z,74.80
2018-01-21T06:21:05.927Z,75.90
2018-01-21T06:22:05.919Z,75.90
2018-01-21T06:23:05.909Z,74.40
2018-01-21T06:24:05.902Z,72.20
2018-01-21T06:25:05.884Z,71.60
2018-01-21T06:26:05.878Z,75.20
2018-01-21T06:27:05.867Z,75.30
2018-01-21T06:28:05.856Z,74.10
2018-01-21T06:29:05.848Z,83.40
2018-01-21T06:30:05.840Z,81.30
2018-01-21T06:31:05.829Z,83.60
2018-01-21T06:32:05.819Z,87.20
2018-01-21T06:33:05.804Z,88.60
2018-01-21T06:34:05.798Z,94.80
2018-01-21T06:35:05.789Z,95.40
2018-01-21T06:36:05.778Z,91.80
2018-01-21T06:37:05.772Z,94.10
2018-01-21T06:38:05.760Z,91.30
2018-01-21T06:39:05.747Z,92.40
2018-01-21T06:40:05.739Z,89.90
2018-01-21T06:41:05.731Z,84.10
2018-01-21T06:42:05.719Z,85.10
2018-01-21T06:43:05.709Z,90.00
2018-01-21T06:44:05.700Z,81.40
2018-01-21T06:45:05.687Z,86.30
2018-01-21T06:46:05.679Z,85.10
2018-01-21T06:47:05.671Z,90.70
2018-01-21T06:48:05.661Z,84.80
2018-01-21T06:49:05.659Z,87.80
2018-01-21T06:50:05.642Z,83.70
2018-01-21T06:51:05.633Z,80.70
2018-01-21T06:52:05.621Z,82.70
2018-01-21T06:53:05.611Z,82.50
2018-01-21T06:54:05.620Z,81.70
2018-01-21T06:55:05.596Z,86.60
2018-01-21T06:56:05.580Z,83.70
2018-01-21T06:57:05.575Z,85.80
2018-01-21T06:58:05.558Z,78.90
2018-01-21T06:59:05.551Z,85.20
2018-01-21T07:00:05.544Z,92.80
2018-01-21T07:01:05.532Z,92.60
2018-01-21T07:02:05.522Z,95.70
2018-01-21T07:03:05.510Z,97.10
2018-01-21T07:04:05.497Z,78.20
2018-01-21T07:05:05.492Z,81.10
2018-01-21T07:06:05.481Z,82.60
2018-01-21T07:07:05.474Z,76.70
2018-01-21T07:08:05.462Z,80.00
2018-01-21T07:09:05.450Z,79.30
2018-01-21T07:10:05.441Z,86.40
2018-01-21T07:11:05.431Z,88.70
2018-01-21T07:12:05.421Z,86.70
2018-01-21T07:13:05.412Z,87.90
2018-01-21T07:14:05.400Z,90.00
2018-01-21T07:15:05.392Z,87.90
2018-01-21T07:16:05.380Z,89.30
2018-01-21T07:17:05.370Z,86.00
2018-01-21T07:18:05.361Z,85.00
2018-01-21T07:19:05.351Z,92.50
2018-01-21T07:20:05.344Z,92.40
2018-01-21T07:21:05.331Z,94.10
2018-01-21T07:22:05.319Z,95.50
2018-01-21T07:23:05.311Z,100.80
2018-01-21T07:24:05.301Z,100.90
2018-01-21T07:25:05.290Z,112.40
2018-01-21T07:26:05.287Z,99.50
2018-01-21T07:27:05.270Z,104.00
2018-01-21T07:28:05.258Z,99.40
2018-01-21T07:29:05.251Z,99.30
2018-01-21T07:30:05.242Z,88.40
2018-01-21T07:31:05.242Z,109.00
2018-01-21T07:32:05.221Z,102.10
2018-01-21T07:33:05.212Z,102.80
2018-01-21T07:34:05.199Z,109.20
2018-01-21T07:35:05.189Z,119.80
2018-01-21T07:36:05.197Z,115.20
2018-01-21T07:37:05.178Z,119.80
2018-01-21T07:38:05.176Z,113.90
2018-01-21T07:39:05.150Z,101.80
2018-01-21T07:40:05.142Z,112.70
2018-01-21T07:41:05.134Z,97.10
2018-01-21T07:42:05.124Z,99.30
2018-01-21T07:43:05.112Z,93.90
2018-01-21T07:44:05.106Z,94.00
2018-01-21T07:45:05.093Z,82.50
2018-01-21T07:46:05.086Z,84.30
2018-01-21T07:47:05.074Z,87.10
2018-01-21T07:48:05.064Z,78.90
2018-01-21T07:49:05.054Z,79.40
2018-01-21T07:50:05.046Z,83.10
2018-01-21T07:51:05.037Z,80.90
2018-01-21T07:52:05.025Z,82.30
2018-01-21T07:53:05.014Z,73.90
2018-01-21T07:54:05.006Z,77.20
2018-01-21T07:55:04.995Z,79.00
2018-01-21T07:56:04.985Z,72.80
2018-01-21T07:57:04.975Z,69.90
2018-01-21T07:58:04.966Z,62.20
2018-01-21T07:59:04.953Z,61.30
2018-01-21T08:00:04.945Z,68.10
2018-01-21T08:01:04.938Z,72.30
2018-01-21T08:02:04.968Z,74.60
2018-01-21T08:03:04.920Z,79.50
2018-01-21T08:04:04.910Z,76.50
2018-01-21T08:05:04.898Z,75.30
2018-01-21T08:06:04.888Z,74.90
2018-01-21T08:07:04.883Z,72.10
2018-01-21T08:08:04.871Z,67.10
2018-01-21T08:09:04.864Z,76.00
2018-01-21T08:10:04.853Z,72.80
2018-01-21T08:11:04.842Z,80.90
2018-01-21T08:12:04.833Z,72.20
2018-01-21T08:13:04.825Z,69.00
2018-01-21T08:14:04.814Z,63.20
2018-01-21T08:15:04.806Z,66.90
2018-01-21T08:16:04.796Z,69.70
2018-01-21T08:17:04.785Z,72.00
2018-01-21T08:18:04.773Z,66.00
2018-01-21T08:19:04.766Z,65.40
2018-01-21T08:20:04.759Z,63.00
2018-01-21T08:21:04.750Z,67.90
2018-01-21T08:22:04.739Z,65.00
2018-01-21T08:23:04.731Z,63.10
2018-01-21T08:24:04.721Z,70.90
2018-01-21T08:25:04.708Z,73.90
2018-01-21T08:26:04.705Z,84.60
2018-01-21T08:27:04.691Z,85.60
2018-01-21T08:28:04.712Z,94.30
2018-01-21T08:29:04.675Z,114.50
2018-01-21T08:30:04.667Z,81.90
2018-01-21T08:31:04.660Z,67.00
2018-01-21T08:32:04.646Z,66.50
2018-01-21T08:33:04.637Z,59.80
2018-01-21T08:34:04.633Z,61.10
2018-01-21T08:35:04.630Z,59.40
2018-01-21T08:36:04.611Z,64.90
2018-01-21T08:37:04.596Z,65.30
2018-01-21T08:38:04.593Z,61.70
2018-01-21T08:39:04.584Z,65.20
2018-01-21T08:40:04.576Z,70.40
2018-01-21T08:41:04.564Z,70.30
2018-01-21T08:42:04.553Z,63.00
2018-01-21T08:43:04.545Z,66.80
2018-01-21T08:44:04.530Z,59.60
2018-01-21T08:45:04.526Z,54.80
2018-01-21T08:46:04.513Z,63.10
2018-01-21T08:47:04.510Z,56.40
2018-01-21T08:48:04.498Z,60.00
2018-01-21T08:49:04.492Z,64.60
2018-01-21T08:50:04.484Z,55.80
2018-01-21T08:51:04.469Z,62.00
2018-01-21T08:52:04.462Z,55.10
2018-01-21T08:53:04.453Z,50.90
2018-01-21T08:54:04.442Z,56.00
2018-01-21T08:55:04.434Z,57.40
2018-01-21T08:56:04.427Z,58.70
2018-01-21T08:57:04.417Z,61.10
2018-01-21T08:58:04.407Z,56.40
2018-01-21T08:59:04.398Z,50.00
2018-01-21T09:00:04.388Z,54.60
2018-01-21T09:01:04.380Z,53.60
2018-01-21T09:02:04.370Z,56.90
2018-01-21T09:03:04.361Z,60.70
2018-01-21T09:04:04.353Z,67.80
2018-01-21T09:05:04.345Z,64.00
2018-01-21T09:06:04.336Z,59.70
2018-01-21T09:07:04.324Z,58.00
2018-01-21T09:08:04.316Z,55.00
2018-01-21T09:09:04.306Z,57.10
2018-01-21T09:10:04.297Z,59.70
2018-01-21T09:11:04.286Z,56.30
2018-01-21T09:12:04.280Z,54.90
2018-01-21T09:13:04.272Z,54.90
2018-01-21T09:14:04.262Z,55.80
2018-01-21T09:15:04.251Z,56.60
2018-01-21T09:16:04.239Z,51.60
2018-01-21T09:17:04.234Z,53.10
2018-01-21T09:18:04.223Z,51.90
2018-01-21T09:19:04.226Z,50.20
2018-01-21T09:20:04.211Z,49.60
2018-01-21T09:21:04.214Z,49.90
2018-01-21T09:22:04.186Z,51.90
2018-01-21T09:23:04.180Z,57.80
2018-01-21T09:24:04.169Z,64.40
2018-01-21T09:25:04.159Z,53.30
2018-01-21T09:26:04.153Z,50.10
2018-01-21T09:27:04.142Z,53.70
2018-01-21T09:28:04.135Z,49.10
2018-01-21T09:29:04.128Z,48.80
2018-01-21T09:30:04.118Z,47.20
2018-01-21T09:31:04.116Z,51.60
2018-01-21T09:32:04.098Z,50.60
2018-01-21T09:33:04.087Z,45.60
2018-01-21T09:34:04.079Z,44.00
2018-01-21T09:35:04.075Z,46.90
2018-01-21T09:36:04.061Z,48.20
2018-01-21T09:37:04.053Z,51.60
2018-01-21T09:38:04.041Z,50.70
2018-01-21T09:39:04.036Z,50.30
2018-01-21T09:40:04.027Z,44.80
2018-01-21T09:41:04.017Z,55.50
2018-01-21T09:42:04.011Z,53.70
2018-01-21T09:43:03.998Z,55.30
2018-01-21T09:44:03.990Z,54.20
2018-01-21T09:45:03.987Z,54.60
2018-01-21T09:46:03.977Z,54.60
2018-01-21T09:47:03.965Z,57.90
2018-01-21T09:48:03.952Z,61.00
2018-01-21T09:49:03.946Z,58.30
2018-01-21T09:50:03.936Z,54.60
2018-01-21T09:51:03.926Z,52.80
2018-01-21T09:52:03.918Z,57.40
2018-01-21T09:53:03.909Z,57.10
2018-01-21T09:54:03.898Z,58.10
2018-01-21T09:55:03.893Z,58.30
2018-01-21T09:56:03.879Z,55.20
2018-01-21T09:57:03.880Z,51.90
2018-01-21T09:58:03.862Z,45.80
2018-01-21T09:59:03.854Z,49.40
2018-01-21T10:00:03.844Z,54.70
2018-01-21T10:01:03.836Z,56.80
2018-01-21T10:02:03.825Z,54.00
2018-01-21T10:03:03.815Z,50.20
2018-01-21T10:04:03.808Z,51.60
2018-01-21T10:05:03.800Z,53.10
2018-01-21T10:06:03.789Z,55.40
2018-01-21T10:07:03.780Z,46.00
2018-01-21T10:08:03.770Z,51.50
2018-01-21T10:09:03.763Z,52.20
2018-01-21T10:10:03.753Z,46.10
2018-01-21T10:11:03.748Z,50.90
2018-01-21T10:12:03.737Z,50.60
2018-01-21T10:13:03.725Z,56.50
2018-01-21T10:14:03.712Z,54.40
2018-01-21T10:15:03.711Z,56.50
2018-01-21T10:16:03.698Z,55.40
2018-01-21T10:17:03.691Z,54.00
2018-01-21T10:18:03.682Z,50.80
2018-01-21T10:19:03.673Z,57.80
2018-01-21T10:20:03.662Z,55.00
2018-01-21T10:21:03.653Z,50.60
2018-01-21T10:22:03.643Z,51.10
2018-01-21T10:23:03.632Z,54.00
2018-01-21T10:24:03.626Z,49.70
2018-01-21T10:25:03.617Z,48.40
2018-01-21T10:26:03.606Z,48.30
2018-01-21T10:27:03.602Z,50.50
2018-01-21T10:28:03.590Z,54.30
2018-01-21T10:29:03.582Z,53.20
2018-01-21T10:30:03.570Z,53.10
2018-01-21T10:31:03.564Z,52.30
2018-01-21T10:32:03.554Z,50.00
2018-01-21T10:33:03.545Z,53.70
2018-01-21T10:34:03.534Z,53.70
2018-01-21T10:35:03.524Z,54.70
2018-01-21T10:36:03.522Z,53.00
2018-01-21T10:37:03.514Z,47.30
2018-01-21T10:38:03.499Z,46.50
2018-01-21T10:39:03.489Z,48.00
2018-01-21T10:40:03.478Z,50.10
2018-01-21T10:41:03.472Z,54.60
2018-01-21T10:42:03.466Z,61.90
2018-01-21T10:43:03.454Z,54.60
2018-01-21T10:44:03.445Z,47.60
2018-01-21T10:45:03.442Z,45.10
2018-01-21T10:46:03.429Z,46.70
2018-01-21T10:47:03.418Z,47.40
2018-01-21T10:48:03.410Z,46.50
2018-01-21T10:49:03.403Z,50.20
2018-01-21T10:50:03.393Z,52.70
2018-01-21T10:51:03.384Z,52.80
2018-01-21T10:52:03.373Z,51.40
2018-01-21T10:53:03.365Z,44.60
2018-01-21T10:54:03.365Z,47.10
2018-01-21T10:55:03.345Z,53.50
2018-01-21T10:56:03.337Z,53.70
2018-01-21T10:57:03.332Z,55.40
2018-01-21T10:58:03.315Z,55.80
2018-01-21T10:59:03.311Z,54.10
2018-01-21T11:00:03.303Z,50.90
2018-01-21T11:01:03.293Z,49.50
2018-01-21T11:02:03.284Z,48.60
2018-01-21T11:03:03.276Z,46.10
2018-01-21T11:04:03.268Z,44.20
2018-01-21T11:05:03.260Z,41.50
2018-01-21T11:06:03.249Z,46.20
2018-01-21T11:07:03.242Z,43.60
2018-01-21T11:08:03.232Z,45.30
2018-01-21T11:09:03.224Z,45.30
2018-01-21T11:10:03.216Z,45.40
2018-01-21T11:11:03.205Z,42.60
2018-01-21T11:12:03.198Z,45.20
2018-01-21T11:13:03.191Z,43.30
2018-01-21T11:14:03.178Z,45.60
2018-01-21T11:15:03.170Z,51.00
2018-01-21T11:16:03.161Z,47.40
2018-01-21T11:17:03.153Z,46.00
2018-01-21T11:18:03.143Z,46.40
2018-01-21T11:19:03.133Z,41.40
2018-01-21T11:20:03.124Z,45.20
2018-01-21T11:21:03.118Z,44.70
2018-01-21T11:22:03.106Z,46.10
2018-01-21T11:23:03.144Z,41.50
2018-01-21T11:24:03.090Z,42.80
2018-01-21T11:25:03.083Z,47.20
2018-01-21T11:26:03.067Z,45.40
2018-01-21T11:27:03.063Z,46.70
2018-01-21T11:28:03.055Z,46.90
2018-01-21T11:29:03.052Z,46.70
2018-01-21T11:30:03.042Z,51.00
2018-01-21T11:31:03.032Z,44.00
2018-01-21T11:32:03.020Z,44.90
2018-01-21T11:33:03.014Z,43.30
2018-01-21T11:34:03.003Z,43.00
2018-01-21T11:35:02.995Z,42.30
2018-01-21T11:36:02.985Z,44.70
2018-01-21T11:37:02.980Z,51.30
2018-01-21T11:38:02.969Z,50.50
2018-01-21T11:39:02.960Z,50.00
2018-01-21T11:40:02.956Z,53.40
2018-01-21T11:41:02.940Z,58.70
2018-01-21T11:42:02.936Z,65.40
2018-01-21T11:43:02.925Z,67.40
2018-01-21T11:44:02.919Z,62.40
2018-01-21T11:45:02.918Z,62.50
2018-01-21T11:46:02.898Z,55.40
2018-01-21T11:47:02.891Z,58.00
2018-01-21T11:48:02.881Z,63.00
2018-01-21T11:49:02.875Z,58.30
2018-01-21T11:50:02.869Z,67.40
2018-01-21T11:51:02.857Z,61.10
2018-01-21T11:52:02.850Z,61.00
2018-01-21T11:53:02.840Z,66.20
2018-01-21T11:54:02.830Z,62.90
2018-01-21T11:55:02.822Z,57.40
2018-01-21T11:56:02.815Z,61.10
2018-01-21T11:57:02.812Z,61.70
2018-01-21T11:58:02.824Z,61.50
2018-01-21T11:59:02.790Z,59.50
2018-01-21T12:00:02.776Z,60.70
2018-01-21T12:01:02.771Z,54.00
2018-01-21T12:02:02.760Z,54.30
2018-01-21T12:03:02.755Z,53.50
2018-01-21T12:04:02.747Z,53.30
2018-01-21T12:05:02.770Z,50.00
2018-01-21T12:06:02.731Z,46.10
2018-01-21T12:07:02.721Z,45.10
2018-01-21T12:08:02.710Z,45.40
2018-01-21T12:09:02.702Z,51.50
2018-01-21T12:10:02.696Z,52.00
2018-01-21T12:11:02.687Z,51.40
2018-01-21T12:12:02.678Z,51.90
2018-01-21T12:13:02.673Z,54.60
2018-01-21T12:14:02.658Z,49.40
2018-01-21T12:15:02.652Z,53.70
2018-01-21T12:16:02.643Z,52.90
2018-01-21T12:17:02.639Z,48.30
2018-01-21T12:18:02.636Z,36.00
2018-01-21T12:19:02.619Z,35.80
2018-01-21T12:20:02.611Z,32.50
2018-01-21T12:21:02.603Z,28.70
2018-01-21T12:22:02.594Z,30.40
2018-01-21T12:23:02.585Z,34.70
2018-01-21T12:24:02.577Z,33.30
2018-01-21T12:25:02.569Z,29.80
2018-01-21T12:26:02.562Z,28.90
2018-01-21T12:27:02.551Z,36.00
2018-01-21T12:28:02.539Z,34.60
2018-01-21T12:29:02.535Z,34.60
2018-01-21T12:30:02.528Z,35.80
2018-01-21T12:31:02.512Z,37.20
2018-01-21T12:32:02.510Z,40.30
2018-01-21T12:33:02.502Z,38.10
2018-01-21T12:34:02.496Z,36.70
2018-01-21T12:35:02.481Z,39.10
2018-01-21T12:36:02.476Z,37.70
2018-01-21T12:37:02.467Z,38.60
2018-01-21T12:38:02.458Z,34.70
2018-01-21T12:39:02.452Z,37.40
2018-01-21T12:40:02.441Z,35.50
2018-01-21T12:41:02.439Z,32.80
2018-01-21T12:42:02.423Z,35.90
2018-01-21T12:43:02.415Z,33.60
2018-01-21T12:44:02.416Z,33.50
2018-01-21T12:45:02.395Z,35.10
2018-01-21T12:46:02.448Z,36.30
2018-01-21T12:47:02.377Z,40.30
2018-01-21T12:48:02.373Z,39.40
2018-01-21T12:49:02.362Z,39.90
2018-01-21T12:50:02.356Z,42.80
2018-01-21T12:51:02.359Z,43.30